createdAt,value
2023-07-09T00:00:23.608Z,645.00
2023-07-09T00:01:23.683Z,646.00
2023-07-09T00:02:23.664Z,644.00
2023-07-09T00:03:23.644Z,642.00
2023-07-09T00:04:23.759Z,642.00
2023-07-09T00:05:23.690Z,644.00
2023-07-09T00:06:23.686Z,645.00
2023-07-09T00:07:23.736Z,644.00
2023-07-09T00:08:23.760Z,647.00
2023-07-09T00:09:23.784Z,646.00
2023-07-09T00:10:23.814Z,644.00
2023-07-09T00:11:23.855Z,643.00
2023-07-09T00:12:23.935Z,644.00
2023-07-09T00:13:23.941Z,645.00
2023-07-09T00:14:23.980Z,646.00
2023-07-09T00:15:23.990Z,647.00
2023-07-09T00:16:24.072Z,649.00
2023-07-09T00:17:24.174Z,649.00
2023-07-09T00:18:24.147Z,651.00
2023-07-09T00:19:24.154Z,652.00
2023-07-09T00:20:24.199Z,654.00
2023-07-09T00:21:25.170Z,651.00
2023-07-09T00:22:24.286Z,650.00
2023-07-09T00:23:24.295Z,648.00
2023-07-09T00:24:24.363Z,649.00
2023-07-09T00:25:24.329Z,648.00
2023-07-09T00:26:24.605Z,649.00
2023-07-09T00:27:24.368Z,650.00
2023-07-09T00:28:24.410Z,650.00
2023-07-09T00:29:24.417Z,648.00
2023-07-09T00:30:24.441Z,649.00
2023-07-09T00:31:24.502Z,646.00
2023-07-09T00:32:24.579Z,647.00
2023-07-09T00:33:24.553Z,646.00
2023-07-09T00:34:24.580Z,646.00
2023-07-09T00:35:24.650Z,644.00
2023-07-09T00:36:24.724Z,644.00
2023-07-09T00:37:24.729Z,643.00
2023-07-09T00:38:24.761Z,645.00
2023-07-09T00:39:24.772Z,644.00
2023-07-09T00:40:24.864Z,640.00
2023-07-09T00:41:24.861Z,641.00
2023-07-09T00:42:25.006Z,640.00
2023-07-09T00:43:24.913Z,642.00
2023-07-09T00:44:24.941Z,644.00
2023-07-09T00:45:24.941Z,643.00
2023-07-09T00:46:25.079Z,640.00
2023-07-09T00:47:25.188Z,641.00
2023-07-09T00:48:25.061Z,645.00
2023-07-09T00:49:25.030Z,642.00
2023-07-09T00:50:25.053Z,644.00
2023-07-09T00:51:25.143Z,643.00
2023-07-09T00:52:25.085Z,645.00
2023-07-09T00:53:25.100Z,645.00
2023-07-09T00:54:25.124Z,644.00
2023-07-09T00:55:25.168Z,645.00
2023-07-09T00:56:25.176Z,646.00
2023-07-09T00:57:25.194Z,647.00
2023-07-09T00:58:25.244Z,647.00
2023-07-09T00:59:25.340Z,649.00
2023-07-09T01:00:25.279Z,650.00
2023-07-09T01:01:25.368Z,648.00
2023-07-09T01:02:25.518Z,646.00
2023-07-09T01:03:25.346Z,647.00
2023-07-09T01:04:25.317Z,647.00
2023-07-09T01:05:25.378Z,645.00
2023-07-09T01:06:32.376Z,647.00
2023-07-09T01:07:25.793Z,646.00
2023-07-09T01:08:25.354Z,645.00
2023-07-09T01:09:25.333Z,645.00
2023-07-09T01:10:25.337Z,644.00
2023-07-09T01:11:25.314Z,645.00
2023-07-09T01:12:25.312Z,644.00
2023-07-09T01:13:25.764Z,642.00
2023-07-09T01:14:25.312Z,642.00
2023-07-09T01:15:25.316Z,641.00
2023-07-09T01:16:25.425Z,641.00
2023-07-09T01:17:25.323Z,643.00
2023-07-09T01:18:25.737Z,646.00
2023-07-09T01:19:25.265Z,644.00
2023-07-09T01:20:25.266Z,646.00
2023-07-09T01:21:25.261Z,643.00
2023-07-09T01:22:25.273Z,642.00
2023-07-09T01:23:25.239Z,642.00
2023-07-09T01:24:25.233Z,643.00
2023-07-09T01:25:25.233Z,642.00
2023-07-09T01:26:25.219Z,640.00
2023-07-09T01:27:25.239Z,641.00
2023-07-09T01:28:25.207Z,643.00
2023-07-09T01:29:25.212Z,643.00
2023-07-09T01:30:25.208Z,644.00
2023-07-09T01:31:25.220Z,644.00
2023-07-09T01:32:25.255Z,644.00
2023-07-09T01:33:25.189Z,644.00
2023-07-09T01:34:25.174Z,644.00
2023-07-09T01:35:25.180Z,645.00
2023-07-09T01:36:25.187Z,643.00
2023-07-09T01:37:25.221Z,643.00
2023-07-09T01:38:25.150Z,646.00
2023-07-09T01:39:25.154Z,643.00
2023-07-09T01:40:30.799Z,644.00
2023-07-09T01:41:26.132Z,643.00
2023-07-09T01:42:25.126Z,644.00
2023-07-09T01:43:25.132Z,644.00
2023-07-09T01:44:25.111Z,645.00
2023-07-09T01:45:25.113Z,645.00
2023-07-09T01:46:25.125Z,644.00
2023-07-09T01:47:25.492Z,645.00
2023-07-09T01:48:25.111Z,645.00
2023-07-09T01:49:25.085Z,645.00
2023-07-09T01:50:25.102Z,642.00
2023-07-09T01:51:25.119Z,641.00
2023-07-09T01:52:25.136Z,642.00
2023-07-09T01:53:25.216Z,640.00
2023-07-09T01:54:25.222Z,640.00
2023-07-09T01:55:25.270Z,638.00
2023-07-09T01:56:25.299Z,636.00
2023-07-09T01:57:25.374Z,635.00
2023-07-09T01:58:25.401Z,631.00
2023-07-09T01:59:25.427Z,633.00
2023-07-09T02:00:25.480Z,634.00
2023-07-09T02:01:25.506Z,635.00
2023-07-09T02:02:25.524Z,637.00
2023-07-09T02:03:25.517Z,639.00
2023-07-09T02:04:25.575Z,641.00
2023-07-09T02:05:25.599Z,641.00
2023-07-09T02:06:25.723Z,640.00
2023-07-09T02:07:25.699Z,641.00
2023-07-09T02:08:25.782Z,643.00
2023-07-09T02:09:25.782Z,645.00
2023-07-09T02:10:25.826Z,642.00
2023-07-09T02:11:25.869Z,644.00
2023-07-09T02:12:25.932Z,641.00
2023-07-09T02:13:26.016Z,640.00
2023-07-09T02:14:26.029Z,640.00
2023-07-09T02:15:26.075Z,641.00
2023-07-09T02:16:26.173Z,642.00
2023-07-09T02:17:26.288Z,642.00
2023-07-09T02:18:26.186Z,642.00
2023-07-09T02:19:26.247Z,641.00
2023-07-09T02:20:26.326Z,641.00
2023-07-09T02:21:26.369Z,639.00
2023-07-09T02:22:26.406Z,638.00
2023-07-09T02:23:26.445Z,636.00
2023-07-09T02:24:26.505Z,637.00
2023-07-09T02:25:26.537Z,638.00
2023-07-09T02:26:26.623Z,635.00
2023-07-09T02:27:26.643Z,634.00
2023-07-09T02:28:26.712Z,636.00
2023-07-09T02:29:26.720Z,636.00
2023-07-09T02:30:26.760Z,636.00
2023-07-09T02:31:26.862Z,636.00
2023-07-09T02:32:26.877Z,636.00
2023-07-09T02:33:26.884Z,636.00
2023-07-09T02:34:26.925Z,639.00
2023-07-09T02:35:26.979Z,638.00
2023-07-09T02:36:27.007Z,638.00
2023-07-09T02:37:27.256Z,640.00
2023-07-09T02:38:27.109Z,640.00
2023-07-09T02:39:27.141Z,639.00
2023-07-09T02:40:27.163Z,640.00
2023-07-09T02:41:27.192Z,639.00
2023-07-09T02:42:27.220Z,638.00
2023-07-09T02:43:27.255Z,641.00
2023-07-09T02:44:27.278Z,642.00
2023-07-09T02:45:27.282Z,641.00
2023-07-09T02:46:27.313Z,639.00
2023-07-09T02:47:27.474Z,640.00
2023-07-09T02:48:27.395Z,637.00
2023-07-09T02:49:27.404Z,635.00
2023-07-09T02:50:27.432Z,635.00
2023-07-09T02:51:27.477Z,635.00
2023-07-09T02:52:27.539Z,634.00
2023-07-09T02:53:27.544Z,636.00
2023-07-09T02:54:27.586Z,635.00
2023-07-09T02:55:27.614Z,634.00
2023-07-09T02:56:27.669Z,632.00
2023-07-09T02:57:27.734Z,631.00
2023-07-09T02:58:27.719Z,630.00
2023-07-09T02:59:27.750Z,629.00
2023-07-09T03:00:27.796Z,630.00
2023-07-09T03:01:27.822Z,630.00
2023-07-09T03:02:27.865Z,632.00
2023-07-09T03:03:27.928Z,634.00
2023-07-09T03:04:27.874Z,633.00
2023-07-09T03:05:27.884Z,633.00
2023-07-09T03:06:27.903Z,630.00
2023-07-09T03:07:27.940Z,630.00
2023-07-09T03:08:27.946Z,632.00
2023-07-09T03:09:27.983Z,631.00
2023-07-09T03:10:27.998Z,630.00
2023-07-09T03:11:28.005Z,629.00
2023-07-09T03:12:28.035Z,629.00
2023-07-09T03:13:28.099Z,632.00
2023-07-09T03:14:28.061Z,632.00
2023-07-09T03:15:28.089Z,631.00
2023-07-09T03:16:28.145Z,630.00
2023-07-09T03:17:28.239Z,632.00
2023-07-09T03:18:28.329Z,632.00
2023-07-09T03:19:28.302Z,631.00
2023-07-09T03:20:28.320Z,633.00
2023-07-09T03:21:28.358Z,633.00
2023-07-09T03:22:28.368Z,634.00
2023-07-09T03:23:28.360Z,632.00
2023-07-09T03:24:28.366Z,629.00
2023-07-09T03:25:28.380Z,629.00
2023-07-09T03:26:28.406Z,626.00
2023-07-09T03:27:28.448Z,627.00
2023-07-09T03:28:28.476Z,627.00
2023-07-09T03:29:28.516Z,627.00
2023-07-09T03:30:28.525Z,628.00
2023-07-09T03:31:28.643Z,629.00
2023-07-09T03:32:28.628Z,630.00
2023-07-09T03:33:28.589Z,630.00
2023-07-09T03:34:28.642Z,629.00
2023-07-09T03:35:28.779Z,629.00
2023-07-09T03:36:28.652Z,627.00
2023-07-09T03:37:28.696Z,628.00
2023-07-09T03:38:28.691Z,628.00
2023-07-09T03:39:28.710Z,629.00
2023-07-09T03:40:28.738Z,629.00
2023-07-09T03:41:28.720Z,629.00
2023-07-09T03:42:28.749Z,630.00
2023-07-09T03:43:28.739Z,629.00
2023-07-09T03:44:28.763Z,629.00
2023-07-09T03:45:28.756Z,628.00
2023-07-09T03:46:28.816Z,628.00
2023-07-09T03:47:28.858Z,626.00
2023-07-09T03:48:28.947Z,627.00
2023-07-09T03:49:28.818Z,627.00
2023-07-09T03:50:28.852Z,627.00
2023-07-09T03:51:28.893Z,625.00
2023-07-09T03:52:28.928Z,626.00
2023-07-09T03:53:28.955Z,625.00
2023-07-09T03:54:28.983Z,625.00
2023-07-09T03:55:29.004Z,625.00
2023-07-09T03:56:28.998Z,623.00
2023-07-09T03:57:29.035Z,622.00
2023-07-09T03:58:29.074Z,624.00
2023-07-09T03:59:29.108Z,625.00
2023-07-09T04:00:29.118Z,624.00
2023-07-09T04:01:29.222Z,623.00
2023-07-09T04:02:29.209Z,622.00
2023-07-09T04:03:29.235Z,621.00
2023-07-09T04:04:29.176Z,620.00
2023-07-09T04:05:29.206Z,621.00
2023-07-09T04:06:29.229Z,623.00
2023-07-09T04:07:29.242Z,625.00
2023-07-09T04:08:29.276Z,628.00
2023-07-09T04:09:29.276Z,626.00
2023-07-09T04:10:29.289Z,624.00
2023-07-09T04:11:29.326Z,622.00
2023-07-09T04:12:29.356Z,623.00
2023-07-09T04:13:29.475Z,624.00
2023-07-09T04:14:29.397Z,625.00
2023-07-09T04:15:29.399Z,625.00
2023-07-09T04:16:29.460Z,624.00
2023-07-09T04:17:29.449Z,624.00
2023-07-09T04:18:29.502Z,620.00
2023-07-09T04:19:29.484Z,618.00
2023-07-09T04:20:29.499Z,618.00
2023-07-09T04:21:29.493Z,621.00
2023-07-09T04:22:29.512Z,621.00
2023-07-09T04:23:29.544Z,621.00
2023-07-09T04:24:29.555Z,621.00
2023-07-09T04:25:29.583Z,622.00
2023-07-09T04:26:29.622Z,623.00
2023-07-09T04:27:29.657Z,624.00
2023-07-09T04:28:29.687Z,626.00
2023-07-09T04:29:29.726Z,627.00
2023-07-09T04:30:29.778Z,629.00
2023-07-09T04:31:29.882Z,630.00
2023-07-09T04:32:30.073Z,632.00
2023-07-09T04:33:29.916Z,628.00
2023-07-09T04:34:29.948Z,626.00
2023-07-09T04:35:30.018Z,626.00
2023-07-09T04:36:30.061Z,624.00
2023-07-09T04:37:30.129Z,620.00
2023-07-09T04:38:30.607Z,622.00
2023-07-09T04:39:30.217Z,623.00
2023-07-09T04:40:30.272Z,625.00
2023-07-09T04:41:30.287Z,624.00
2023-07-09T04:42:30.333Z,625.00
2023-07-09T04:43:30.396Z,625.00
2023-07-09T04:44:30.393Z,623.00
2023-07-09T04:45:30.430Z,624.00
2023-07-09T04:46:30.529Z,623.00
2023-07-09T04:47:30.569Z,624.00
2023-07-09T04:48:30.593Z,625.00
2023-07-09T04:49:30.619Z,626.00
2023-07-09T04:50:30.669Z,627.00
2023-07-09T04:51:30.692Z,626.00
2023-07-09T04:52:30.747Z,627.00
2023-07-09T04:53:30.820Z,626.00
2023-07-09T04:54:30.823Z,629.00
2023-07-09T04:55:30.865Z,629.00
2023-07-09T04:56:30.971Z,627.00
2023-07-09T04:57:30.935Z,628.00
2023-07-09T04:58:30.996Z,630.00
2023-07-09T04:59:31.012Z,628.00
2023-07-09T05:00:31.826Z,627.00
2023-07-09T05:01:32.776Z,626.00
2023-07-09T05:02:31.178Z,627.00
2023-07-09T05:03:31.359Z,627.00
2023-07-09T05:04:31.217Z,625.00
2023-07-09T05:05:31.250Z,624.00
2023-07-09T05:06:31.315Z,624.00
2023-07-09T05:07:31.362Z,623.00
2023-07-09T05:08:31.427Z,624.00
2023-07-09T05:09:31.444Z,626.00
2023-07-09T05:10:31.474Z,628.00
2023-07-09T05:11:31.537Z,627.00
2023-07-09T05:12:31.570Z,627.00
2023-07-09T05:13:31.668Z,628.00
2023-07-09T05:14:31.640Z,628.00
2023-07-09T05:15:31.708Z,627.00
2023-07-09T05:16:31.890Z,629.00
2023-07-09T05:17:31.768Z,630.00
2023-07-09T05:18:31.816Z,631.00
2023-07-09T05:19:31.883Z,630.00
2023-07-09T05:20:31.927Z,629.00
2023-07-09T05:21:31.995Z,629.00
2023-07-09T05:22:32.045Z,629.00
2023-07-09T05:23:32.100Z,627.00
2023-07-09T05:24:32.170Z,627.00
2023-07-09T05:25:32.214Z,628.00
2023-07-09T05:26:32.277Z,627.00
2023-07-09T05:27:32.337Z,627.00
2023-07-09T05:28:32.384Z,627.00
2023-07-09T05:29:32.427Z,627.00
2023-07-09T05:30:32.491Z,627.00
2023-07-09T05:31:32.548Z,629.00
2023-07-09T05:32:32.589Z,630.00
2023-07-09T05:33:32.598Z,628.00
2023-07-09T05:34:32.607Z,627.00
2023-07-09T05:35:32.664Z,626.00
2023-07-09T05:36:32.722Z,627.00
2023-07-09T05:37:32.770Z,626.00
2023-07-09T05:38:32.812Z,624.00
2023-07-09T05:39:32.868Z,624.00
2023-07-09T05:40:32.937Z,625.00
2023-07-09T05:41:32.978Z,623.00
2023-07-09T05:42:33.015Z,622.00
2023-07-09T05:43:33.053Z,623.00
2023-07-09T05:44:33.083Z,625.00
2023-07-09T05:45:33.120Z,624.00
2023-07-09T05:46:33.197Z,627.00
2023-07-09T05:47:33.268Z,626.00
2023-07-09T05:48:33.271Z,627.00
2023-07-09T05:49:33.319Z,628.00
2023-07-09T05:50:33.362Z,629.00
2023-07-09T05:51:33.392Z,632.00
2023-07-09T05:52:33.434Z,633.00
2023-07-09T05:53:33.487Z,633.00
2023-07-09T05:54:33.545Z,632.00
2023-07-09T05:55:33.629Z,630.00
2023-07-09T05:56:33.614Z,626.00
2023-07-09T05:57:33.627Z,628.00
2023-07-09T05:58:33.695Z,628.00
2023-07-09T05:59:33.746Z,626.00
2023-07-09T06:00:33.874Z,625.00
2023-07-09T06:01:33.867Z,626.00
2023-07-09T06:02:34.009Z,624.00
2023-07-09T06:03:34.176Z,625.00
2023-07-09T06:04:34.155Z,628.00
2023-07-09T06:05:34.105Z,626.00
2023-07-09T06:06:34.173Z,625.00
2023-07-09T06:07:34.239Z,624.00
2023-07-09T06:08:34.290Z,622.00
2023-07-09T06:09:34.341Z,624.00
2023-07-09T06:10:34.382Z,624.00
2023-07-09T06:11:34.436Z,623.00
2023-07-09T06:12:34.501Z,624.00
2023-07-09T06:13:34.584Z,622.00
2023-07-09T06:14:34.610Z,621.00
2023-07-09T06:15:34.660Z,619.00
2023-07-09T06:16:34.789Z,619.00
2023-07-09T06:17:34.842Z,619.00
2023-07-09T06:18:34.872Z,619.00
2023-07-09T06:19:34.908Z,621.00
2023-07-09T06:20:34.957Z,623.00
2023-07-09T06:21:35.017Z,624.00
2023-07-09T06:22:35.058Z,624.00
2023-07-09T06:23:35.138Z,624.00
2023-07-09T06:24:35.182Z,623.00
2023-07-09T06:25:36.131Z,621.00
2023-07-09T06:26:35.334Z,623.00
2023-07-09T06:27:35.395Z,625.00
2023-07-09T06:28:35.486Z,625.00
2023-07-09T06:29:35.534Z,627.00
2023-07-09T06:30:35.673Z,625.00
2023-07-09T06:31:36.634Z,624.00
2023-07-09T06:32:35.753Z,622.00
2023-07-09T06:33:35.768Z,621.00
2023-07-09T06:34:35.830Z,620.00
2023-07-09T06:35:35.895Z,618.00
2023-07-09T06:36:35.940Z,617.00
2023-07-09T06:37:36.020Z,617.00
2023-07-09T06:38:36.065Z,616.00
2023-07-09T06:39:36.180Z,617.00
2023-07-09T06:40:36.186Z,618.00
2023-07-09T06:41:36.242Z,619.00
2023-07-09T06:42:36.291Z,620.00
2023-07-09T06:43:36.365Z,621.00
2023-07-09T06:44:36.429Z,623.00
2023-07-09T06:45:36.488Z,625.00
2023-07-09T06:46:36.586Z,624.00
2023-07-09T06:47:36.641Z,625.00
2023-07-09T06:48:36.692Z,628.00
2023-07-09T06:49:36.747Z,628.00
2023-07-09T06:50:36.797Z,627.00
2023-07-09T06:51:36.863Z,630.00
2023-07-09T06:52:36.928Z,632.00
2023-07-09T06:53:36.992Z,633.00
2023-07-09T06:54:37.060Z,634.00
2023-07-09T06:55:37.118Z,635.00
2023-07-09T06:56:37.174Z,635.00
2023-07-09T06:57:37.233Z,633.00
2023-07-09T06:58:37.302Z,633.00
2023-07-09T06:59:37.337Z,632.00
2023-07-09T07:00:37.412Z,631.00
2023-07-09T07:01:37.467Z,631.00
2023-07-09T07:02:37.536Z,629.00
2023-07-09T07:03:37.688Z,627.00
2023-07-09T07:04:37.626Z,628.00
2023-07-09T07:05:37.687Z,629.00
2023-07-09T07:06:37.756Z,631.00
2023-07-09T07:07:37.791Z,632.00
2023-07-09T07:08:37.884Z,631.00
2023-07-09T07:09:37.908Z,632.00
2023-07-09T07:10:37.979Z,632.00
2023-07-09T07:11:38.022Z,633.00
2023-07-09T07:12:38.070Z,632.00
2023-07-09T07:13:38.141Z,629.00
2023-07-09T07:14:38.177Z,630.00
2023-07-09T07:15:38.235Z,631.00
2023-07-09T07:16:38.355Z,632.00
2023-07-09T07:17:38.399Z,633.00
2023-07-09T07:18:38.417Z,633.00
2023-07-09T07:19:38.448Z,632.00
2023-07-09T07:20:38.516Z,631.00
2023-07-09T07:21:38.563Z,632.00
2023-07-09T07:22:38.627Z,630.00
2023-07-09T07:23:38.718Z,630.00
2023-07-09T07:24:38.760Z,630.00
2023-07-09T07:25:38.808Z,631.00
2023-07-09T07:26:38.874Z,631.00
2023-07-09T07:27:39.261Z,631.00
2023-07-09T07:28:39.041Z,631.00
2023-07-09T07:29:39.057Z,631.00
2023-07-09T07:30:39.122Z,631.00
2023-07-09T07:31:39.231Z,630.00
2023-07-09T07:32:39.288Z,630.00
2023-07-09T07:33:39.321Z,628.00
2023-07-09T07:34:39.372Z,630.00
2023-07-09T07:35:48.024Z,633.00
2023-07-09T07:36:43.192Z,634.00
2023-07-09T07:37:39.454Z,635.00
2023-07-09T07:38:39.425Z,638.00
2023-07-09T07:39:39.409Z,640.00
2023-07-09T07:40:39.406Z,641.00
2023-07-09T07:41:39.415Z,640.00
2023-07-09T07:42:39.405Z,640.00
2023-07-09T07:43:39.382Z,639.00
2023-07-09T07:44:39.384Z,637.00
2023-07-09T07:45:39.384Z,637.00
2023-07-09T07:46:39.435Z,636.00
2023-07-09T07:47:39.373Z,636.00
2023-07-09T07:48:39.340Z,639.00
2023-07-09T07:49:39.355Z,639.00
2023-07-09T07:50:39.342Z,638.00
2023-07-09T07:51:39.327Z,638.00
2023-07-09T07:52:39.327Z,638.00
2023-07-09T07:53:39.353Z,638.00
2023-07-09T07:54:39.318Z,639.00
2023-07-09T07:55:39.301Z,641.00
2023-07-09T07:56:40.998Z,642.00
2023-07-09T07:57:39.368Z,640.00
2023-07-09T07:58:39.416Z,639.00
2023-07-09T07:59:39.467Z,638.00
2023-07-09T08:00:41.237Z,637.00
2023-07-09T08:01:39.665Z,638.00
2023-07-09T08:02:39.752Z,638.00
2023-07-09T08:03:39.733Z,638.00
2023-07-09T08:04:39.760Z,638.00
2023-07-09T08:05:39.816Z,636.00
2023-07-09T08:06:39.855Z,634.00
2023-07-09T08:07:39.929Z,633.00
2023-07-09T08:08:39.988Z,634.00
2023-07-09T08:09:40.045Z,634.00
2023-07-09T08:10:40.101Z,634.00
2023-07-09T08:11:40.138Z,634.00
2023-07-09T08:12:40.226Z,635.00
2023-07-09T08:13:40.326Z,635.00
2023-07-09T08:14:40.337Z,634.00
2023-07-09T08:15:40.374Z,636.00
2023-07-09T08:16:40.463Z,637.00
2023-07-09T08:17:40.596Z,637.00
2023-07-09T08:18:40.602Z,637.00
2023-07-09T08:19:40.593Z,640.00
2023-07-09T08:20:40.661Z,641.00
2023-07-09T08:21:40.700Z,641.00
2023-07-09T08:22:41.195Z,644.00
2023-07-09T08:23:40.801Z,641.00
2023-07-09T08:24:40.863Z,640.00
2023-07-09T08:25:40.909Z,639.00
2023-07-09T08:26:40.951Z,638.00
2023-07-09T08:27:41.002Z,636.00
2023-07-09T08:28:41.043Z,634.00
2023-07-09T08:29:41.091Z,635.00
2023-07-09T08:30:41.152Z,635.00
2023-07-09T08:31:41.201Z,635.00
2023-07-09T08:32:41.265Z,635.00
2023-07-09T08:33:41.335Z,634.00
2023-07-09T08:34:54.602Z,632.00
2023-07-09T08:35:42.326Z,628.00
2023-07-09T08:36:41.320Z,628.00
2023-07-09T08:37:41.309Z,629.00
2023-07-09T08:38:41.308Z,627.00
2023-07-09T08:39:41.306Z,626.00
2023-07-09T08:40:41.293Z,627.00
2023-07-09T08:41:41.301Z,628.00
2023-07-09T08:42:54.733Z,629.00
2023-07-09T08:43:42.282Z,631.00
2023-07-09T08:44:41.268Z,629.00
2023-07-09T08:45:41.324Z,631.00
2023-07-09T08:46:41.319Z,632.00
2023-07-09T08:47:41.325Z,633.00
2023-07-09T08:48:41.241Z,633.00
2023-07-09T08:49:41.247Z,634.00
2023-07-09T08:50:41.230Z,634.00
2023-07-09T08:51:41.216Z,634.00
2023-07-09T08:52:41.212Z,635.00
2023-07-09T08:53:41.220Z,635.00
2023-07-09T08:54:41.201Z,633.00
2023-07-09T08:55:41.276Z,630.00
2023-07-09T08:56:41.302Z,630.00
2023-07-09T08:57:41.357Z,627.00
2023-07-09T08:58:41.413Z,624.00
2023-07-09T08:59:41.434Z,626.00
2023-07-09T09:00:41.501Z,628.00
2023-07-09T09:01:41.750Z,627.00
2023-07-09T09:02:41.650Z,626.00
2023-07-09T09:03:41.674Z,625.00
2023-07-09T09:04:41.676Z,623.00
2023-07-09T09:05:41.720Z,621.00
2023-07-09T09:06:41.772Z,621.00
2023-07-09T09:07:41.820Z,622.00
2023-07-09T09:08:41.866Z,624.00
2023-07-09T09:09:41.910Z,624.00
2023-07-09T09:10:41.954Z,626.00
2023-07-09T09:11:41.986Z,627.00
2023-07-09T09:12:42.034Z,630.00
2023-07-09T09:13:42.184Z,632.00
2023-07-09T09:14:42.132Z,632.00
2023-07-09T09:15:42.199Z,631.00
2023-07-09T09:16:42.310Z,630.00
2023-07-09T09:17:42.312Z,631.00
2023-07-09T09:18:42.312Z,629.00
2023-07-09T09:19:42.350Z,629.00
2023-07-09T09:20:42.385Z,628.00
2023-07-09T09:21:42.430Z,628.00
2023-07-09T09:22:42.490Z,630.00
2023-07-09T09:23:42.526Z,630.00
2023-07-09T09:24:42.568Z,631.00
2023-07-09T09:25:42.603Z,632.00
2023-07-09T09:26:42.674Z,631.00
2023-07-09T09:27:42.722Z,631.00
2023-07-09T09:28:42.735Z,631.00
2023-07-09T09:29:42.771Z,631.00
2023-07-09T09:30:42.809Z,627.00
2023-07-09T09:31:42.908Z,626.00
2023-07-09T09:32:42.971Z,625.00
2023-07-09T09:33:42.973Z,623.00
2023-07-09T09:34:42.987Z,625.00
2023-07-09T09:35:43.031Z,626.00
2023-07-09T09:36:43.075Z,629.00
2023-07-09T09:37:43.118Z,629.00
2023-07-09T09:38:43.166Z,628.00
2023-07-09T09:39:43.851Z,628.00
2023-07-09T09:40:43.229Z,628.00
2023-07-09T09:41:43.183Z,628.00
2023-07-09T09:42:43.201Z,624.00
2023-07-09T09:43:43.162Z,624.00
2023-07-09T09:44:43.152Z,625.00
2023-07-09T09:45:43.161Z,626.00
2023-07-09T09:46:43.182Z,627.00
2023-07-09T09:47:43.163Z,628.00
2023-07-09T09:48:43.146Z,629.00
2023-07-09T09:49:43.120Z,630.00
2023-07-09T09:50:43.108Z,630.00
2023-07-09T09:51:43.109Z,631.00
2023-07-09T09:52:43.117Z,630.00
2023-07-09T09:53:43.109Z,626.00
2023-07-09T09:54:43.094Z,625.00
2023-07-09T09:55:43.079Z,625.00
2023-07-09T09:56:43.097Z,624.00
2023-07-09T09:57:43.147Z,626.00
2023-07-09T09:58:43.068Z,629.00
2023-07-09T09:59:43.099Z,629.00
2023-07-09T10:00:43.085Z,630.00
2023-07-09T10:01:43.168Z,630.00
2023-07-09T10:02:43.143Z,629.00
2023-07-09T10:03:43.082Z,628.00
2023-07-09T10:04:43.030Z,629.00
2023-07-09T10:05:43.015Z,629.00
2023-07-09T10:06:43.015Z,631.00
2023-07-09T10:07:43.002Z,633.00
2023-07-09T10:08:43.008Z,633.00
2023-07-09T10:10:45.467Z,601.00
2023-07-09T10:11:45.439Z,608.00
2023-07-09T10:12:45.431Z,609.00
2023-07-09T10:13:45.462Z,611.00
2023-07-09T10:14:45.423Z,614.00
2023-07-09T10:15:45.409Z,611.00
2023-07-09T10:16:45.408Z,611.00
2023-07-09T10:17:45.441Z,610.00
2023-07-09T10:18:45.452Z,611.00
2023-07-09T10:19:45.374Z,614.00
2023-07-09T10:20:45.393Z,615.00
2023-07-09T10:21:45.368Z,616.00
2023-07-09T10:22:45.375Z,618.00
2023-07-09T10:23:45.364Z,616.00
2023-07-09T10:24:45.364Z,614.00
2023-07-09T10:25:45.338Z,614.00
2023-07-09T10:26:45.323Z,611.00
2023-07-09T10:27:45.321Z,613.00
2023-07-09T10:28:45.316Z,615.00
2023-07-09T10:29:45.305Z,618.00
2023-07-09T10:30:45.307Z,618.00
2023-07-09T10:31:45.289Z,618.00
2023-07-09T10:32:45.330Z,619.00
2023-07-09T10:33:45.287Z,622.00
2023-07-09T10:34:45.275Z,622.00
2023-07-09T10:35:45.264Z,622.00
2023-07-09T10:36:45.281Z,621.00
2023-07-09T10:37:45.257Z,619.00
2023-07-09T10:38:45.254Z,621.00
2023-07-09T10:39:45.240Z,618.00
2023-07-09T10:40:45.374Z,620.00
2023-07-09T10:41:45.237Z,621.00
2023-07-09T10:42:45.225Z,620.00
2023-07-09T10:43:45.224Z,621.00
2023-07-09T10:44:45.216Z,621.00
2023-07-09T10:45:45.216Z,623.00
2023-07-09T10:46:45.253Z,622.00
2023-07-09T10:47:45.210Z,620.00
2023-07-09T10:48:45.199Z,619.00
2023-07-09T10:49:45.182Z,616.00
2023-07-09T10:50:45.238Z,616.00
2023-07-09T10:51:45.190Z,616.00
2023-07-09T10:52:46.446Z,616.00
2023-07-09T10:53:45.171Z,616.00
2023-07-09T10:54:45.160Z,617.00
2023-07-09T10:55:45.156Z,617.00
2023-07-09T10:56:45.144Z,616.00
2023-07-09T10:57:45.127Z,617.00
2023-07-09T10:58:45.135Z,616.00
2023-07-09T10:59:45.120Z,616.00
2023-07-09T11:00:45.115Z,616.00
2023-07-09T11:01:45.159Z,615.00
2023-07-09T11:02:45.249Z,614.00
2023-07-09T11:03:45.196Z,614.00
2023-07-09T11:04:45.092Z,610.00
2023-07-09T11:05:45.073Z,606.00
2023-07-09T11:06:45.095Z,606.00
2023-07-09T11:07:45.075Z,605.00
2023-07-09T11:08:45.058Z,609.00
2023-07-09T11:09:45.102Z,609.00
2023-07-09T11:10:45.044Z,609.00
2023-07-09T11:11:45.070Z,609.00
2023-07-09T11:12:45.107Z,610.00
2023-07-09T11:13:52.722Z,610.00
2023-07-09T11:14:46.135Z,608.00
2023-07-09T11:15:46.267Z,611.00
2023-07-09T11:16:45.174Z,611.00
2023-07-09T11:17:45.154Z,610.00
2023-07-09T11:18:45.089Z,609.00
2023-07-09T11:19:45.085Z,611.00
2023-07-09T11:20:45.115Z,611.00
2023-07-09T11:21:45.080Z,613.00
2023-07-09T11:22:45.062Z,614.00
2023-07-09T11:23:45.064Z,615.00
2023-07-09T11:24:45.050Z,615.00
2023-07-09T11:25:45.069Z,616.00
2023-07-09T11:26:45.043Z,615.00
2023-07-09T11:27:45.039Z,615.00
2023-07-09T11:28:45.040Z,614.00
2023-07-09T11:29:45.058Z,613.00
2023-07-09T11:30:45.026Z,612.00
2023-07-09T11:31:45.063Z,612.00
2023-07-09T11:32:45.046Z,612.00
2023-07-09T11:33:45.526Z,613.00
2023-07-09T11:34:44.980Z,613.00
2023-07-09T11:35:44.977Z,612.00
2023-07-09T11:36:44.967Z,614.00
2023-07-09T11:37:44.966Z,616.00
2023-07-09T11:38:47.446Z,615.00
2023-07-09T11:39:44.974Z,613.00
2023-07-09T11:40:44.940Z,612.00
2023-07-09T11:41:44.951Z,614.00
2023-07-09T11:42:44.933Z,615.00
2023-07-09T11:43:44.923Z,616.00
2023-07-09T11:44:44.912Z,617.00
2023-07-09T11:45:44.917Z,617.00
2023-07-09T11:46:44.926Z,615.00
2023-07-09T11:47:44.950Z,611.00
2023-07-09T11:48:44.896Z,610.00
2023-07-09T11:49:44.884Z,610.00
2023-07-09T11:50:44.873Z,609.00
2023-07-09T11:51:44.870Z,609.00
2023-07-09T11:52:44.867Z,607.00
2023-07-09T11:53:44.857Z,608.00
2023-07-09T11:54:44.862Z,610.00
2023-07-09T11:55:44.848Z,609.00
2023-07-09T11:56:44.838Z,610.00
2023-07-09T11:57:44.833Z,610.00
2023-07-09T11:58:44.842Z,609.00
2023-07-09T11:59:44.821Z,607.00
2023-07-09T12:00:44.814Z,606.00
2023-07-09T12:01:44.893Z,605.00
2023-07-09T12:02:44.884Z,605.00
2023-07-09T12:03:44.818Z,605.00
2023-07-09T12:04:44.786Z,602.00
2023-07-09T12:05:44.776Z,600.00
2023-07-09T12:06:44.778Z,600.00
2023-07-09T12:07:44.772Z,601.00
2023-07-09T12:08:44.775Z,599.00
2023-07-09T12:09:44.784Z,598.00
2023-07-09T12:10:44.746Z,598.00
2023-07-09T12:11:44.759Z,601.00
2023-07-09T12:12:44.746Z,602.00
2023-07-09T12:13:44.788Z,602.00
2023-07-09T12:14:44.738Z,601.00
2023-07-09T12:15:44.744Z,602.00
2023-07-09T12:16:44.756Z,605.00
2023-07-09T12:17:44.750Z,606.00
2023-07-09T12:18:44.698Z,605.00
2023-07-09T12:19:44.701Z,606.00
2023-07-09T12:20:44.698Z,609.00
2023-07-09T12:21:44.670Z,608.00
2023-07-09T12:22:44.664Z,609.00
2023-07-09T12:23:44.667Z,609.00
2023-07-09T12:24:45.666Z,609.00
2023-07-09T12:25:44.651Z,610.00
2023-07-09T12:26:44.640Z,610.00
2023-07-09T12:27:44.632Z,610.00
2023-07-09T12:28:44.635Z,610.00
2023-07-09T12:29:44.631Z,609.00